Accueil
METAR-TAF:

METAR-TAF

Aéroports :

Bückeburg, Allemagne

latitude: 52-17N, longitude: 009-05E, altitude: 70 m

Observation

Le bulletin a été fait il y a 41 minutes, à 02:20 UTC
Vent 12 kt de nord-est
Température 5°C
Humidité 93%
Pression 1024 hPa
Visibilité 10 km ou plus
Nuages épars à une hauteur de 800 ft
Nuages fragmentés à une hauteur de 1300 ft
Nuages fragmentés à une hauteur de 3000 ft

METAR: ETHB 190220Z 05012KT 9999 SCT008 BKN013 BKN030 05/04 Q1024 GRN

Heure: 04:01 (03:01 UTC)


TAF: absent

Observations et prévisions météorologiques de plus de 4000 aéroports (messages METAR et TAF).

Les stations disponibles sont représentées par des disques jaunes et rouges sur la carte.

Passer la souris dessus pour voir le nom de la station.

Cliquer dessus pour voir les observations et prévisions météorologiques.

Pour changer de carte: cliquez sur les boutons verts avec une croix noire pour zoomer, sur le bouton vert avec un tiret pour effectuer un zoom arrière, ou sur les flèches vertes pour les cartes adjacentes.


METAR-TAF: